Nagoya, Japan
Current Conditions -  °F | °C
As of 8:41 AM on Wednesday 22 Oct 2014 (Local Time) from RJNG Reporting Station
Rain Showers Rain Showers  
Wind Chill: 63°   Ceiling: 1500
Heat Index: 63°   Visibility: 6mi
Dew Point: 61°   Wind: 8mph
Humidity: 94%   Direction: 30°NNE
Pressure: 29.83"   Gusts: NA
Location:  35.15°N, 136.91°E
Report Text: RJNG 212341Z 03007KT 9999 -SHRA FEW008 BKN015 BKN030 17/16 Q1010 RMK 1CU008 5CU015 7CU030 A2983
Loading
Personal Weather Stations






























Interactive Weather Map
Tropical Storm Tracking
New forecast layout! Learn more

10-Day Weather Forecast

Advertisements
Track Severe Weather on mobile